VGT Airport (North Las Vegas) Information

FAA: VGT - ICAO: KVGT

VGT Airport Location

State Nevada
County Clark
City Las Vegas
VGT Airport is 3 miles northwest of Las Vegas, NV.
Latitude 36-12-38.5310N
Longitude 115-11-39.9940W
Elevation 2,205ft

KVGT Airport METARs

METAR KVGT 060753Z AUTO 34007KT 10SM CLR 17/M09 A3010 RMK AO2 SLP197 T01671094 402610094
Altimeter 30.10"
Temperature 16.7°C (62.1°F)
Wind 340° at 7KT
Clouds Skies are clear.
Visibility 10.0mi
Time observed: 2021-12-06T07:53:00Z

VGT Airport Details

Status Operational
Activation January 1942
Ownership Public
Usage Public
Chart LAS VEGAS
ATC on-site Yes
Beacon schedule sunset-sunrise
Beacon color clear green

VGT Airport Contacts

Owner CLARK COUNTY
Owner address 2730 AIRPORT DR SUITE 101, NORTH LAS VEGAS, NV 89032
Owner phone 702-261-3800
Manager JOHN RICE
Manager address P.O. BOX 903, FERNLEY, NV 89408
Manager phone (775) 240-3481

VGT Airport (North Las Vegas) Radio Frequencies

VGT (Airport) Radio Frequencies

UNICOM 122.95
Common traffic advisory frequency (CTAF) 125.7